sensor_id;sensor_type;location;lat;lon;timestamp;temperature;humidity
10306;DHT22;5198;52.382;9.020;2022-11-15T00:02:59;9.40;99.90
10306;DHT22;5198;52.382;9.020;2022-11-15T00:07:02;9.40;99.90
10306;DHT22;5198;52.382;9.020;2022-11-15T00:11:05;9.40;99.90
10306;DHT22;5198;52.382;9.020;2022-11-15T00:15:09;9.40;99.90
10306;DHT22;5198;52.382;9.020;2022-11-15T00:19:12;9.50;99.90
10306;DHT22;5198;52.382;9.020;2022-11-15T00:23:15;9.60;99.90
10306;DHT22;5198;52.382;9.020;2022-11-15T00:27:18;9.70;99.90
10306;DHT22;5198;52.382;9.020;2022-11-15T00:31:22;9.70;99.90
10306;DHT22;5198;52.382;9.020;2022-11-15T00:35:25;9.80;99.90
10306;DHT22;5198;52.382;9.020;2022-11-15T00:39:28;9.90;99.90
10306;DHT22;5198;52.382;9.020;2022-11-15T00:43:31;9.90;99.90
10306;DHT22;5198;52.382;9.020;2022-11-15T00:47:36;10.00;99.90
10306;DHT22;5198;52.382;9.020;2022-11-15T00:51:39;10.00;99.90
10306;DHT22;5198;52.382;9.020;2022-11-15T00:55:41;10.00;99.90
10306;DHT22;5198;52.382;9.020;2022-11-15T00:59:44;10.10;99.90
10306;DHT22;5198;52.382;9.020;2022-11-15T01:03:48;10.20;99.90
10306;DHT22;5198;52.382;9.020;2022-11-15T01:07:51;10.20;99.90
10306;DHT22;5198;52.382;9.020;2022-11-15T01:11:55;10.20;99.90
10306;DHT22;5198;52.382;9.020;2022-11-15T01:15:58;10.30;99.90
10306;DHT22;5198;52.382;9.020;2022-11-15T01:20:02;10.30;99.90
10306;DHT22;5198;52.382;9.020;2022-11-15T01:24:05;10.40;99.90
10306;DHT22;5198;52.382;9.020;2022-11-15T01:28:08;10.40;99.90
10306;DHT22;5198;52.382;9.020;2022-11-15T01:32:11;10.50;99.90
10306;DHT22;5198;52.382;9.020;2022-11-15T01:36:16;10.50;99.90
10306;DHT22;5198;52.382;9.020;2022-11-15T01:40:19;10.60;99.90
10306;DHT22;5198;52.382;9.020;2022-11-15T01:44:36;10.60;99.90
10306;DHT22;5198;52.382;9.020;2022-11-15T01:48:40;10.70;99.90
10306;DHT22;5198;52.382;9.020;2022-11-15T01:52:45;10.70;99.90
10306;DHT22;5198;52.382;9.020;2022-11-15T01:56:51;10.80;99.90
10306;DHT22;5198;52.382;9.020;2022-11-15T02:00:54;10.90;99.90
10306;DHT22;5198;52.382;9.020;2022-11-15T02:04:57;10.90;99.90
10306;DHT22;5198;52.382;9.020;2022-11-15T02:09:02;10.90;99.90
10306;DHT22;5198;52.382;9.020;2022-11-15T02:13:05;11.00;99.90
10306;DHT22;5198;52.382;9.020;2022-11-15T02:17:11;11.00;99.90
10306;DHT22;5198;52.382;9.020;2022-11-15T02:21:20;11.10;99.90
10306;DHT22;5198;52.382;9.020;2022-11-15T02:25:32;11.10;99.90
10306;DHT22;5198;52.382;9.020;2022-11-15T02:29:48;11.20;99.90
10306;DHT22;5198;52.382;9.020;2022-11-15T02:33:59;11.20;99.90
10306;DHT22;5198;52.382;9.020;2022-11-15T02:38:07;11.20;99.90
10306;DHT22;5198;52.382;9.020;2022-11-15T02:42:12;11.30;99.90
10306;DHT22;5198;52.382;9.020;2022-11-15T02:46:32;11.40;99.90
10306;DHT22;5198;52.382;9.020;2022-11-15T02:50:56;11.40;99.90
10306;DHT22;5198;52.382;9.020;2022-11-15T02:54:59;11.40;99.90
10306;DHT22;5198;52.382;9.020;2022-11-15T02:59:07;11.50;99.90
10306;DHT22;5198;52.382;9.020;2022-11-15T03:03:21;11.60;99.90
10306;DHT22;5198;52.382;9.020;2022-11-15T03:07:32;11.60;99.90
10306;DHT22;5198;52.382;9.020;2022-11-15T03:11:38;11.70;99.90
10306;DHT22;5198;52.382;9.020;2022-11-15T03:15:44;11.80;99.90
10306;DHT22;5198;52.382;9.020;2022-11-15T03:19:50;11.80;99.90
10306;DHT22;5198;52.382;9.020;2022-11-15T03:23:56;11.90;99.90
10306;DHT22;5198;52.382;9.020;2022-11-15T03:28:01;12.00;99.90
10306;DHT22;5198;52.382;9.020;2022-11-15T03:32:07;12.10;99.90
10306;DHT22;5198;52.382;9.020;2022-11-15T03:36:11;12.10;99.90
10306;DHT22;5198;52.382;9.020;2022-11-15T03:40:15;12.10;99.90
10306;DHT22;5198;52.382;9.020;2022-11-15T03:44:20;12.20;99.90
10306;DHT22;5198;52.382;9.020;2022-11-15T03:48:26;12.20;99.90
10306;DHT22;5198;52.382;9.020;2022-11-15T03:52:31;12.30;99.90
10306;DHT22;5198;52.382;9.020;2022-11-15T03:56:36;12.30;99.90
10306;DHT22;5198;52.382;9.020;2022-11-15T04:00:38;12.30;99.90
10306;DHT22;5198;52.382;9.020;2022-11-15T04:04:41;12.40;99.90
10306;DHT22;5198;52.382;9.020;2022-11-15T04:08:44;12.40;99.90
10306;DHT22;5198;52.382;9.020;2022-11-15T04:12:49;12.40;99.90
10306;DHT22;5198;52.382;9.020;2022-11-15T04:16:51;12.50;99.90
10306;DHT22;5198;52.382;9.020;2022-11-15T04:20:54;12.50;99.90
10306;DHT22;5198;52.382;9.020;2022-11-15T04:25:14;12.50;99.90
10306;DHT22;5198;52.382;9.020;2022-11-15T04:29:25;12.60;99.90
10306;DHT22;5198;52.382;9.020;2022-11-15T04:33:37;12.60;99.90
10306;DHT22;5198;52.382;9.020;2022-11-15T04:37:39;12.60;99.90
10306;DHT22;5198;52.382;9.020;2022-11-15T04:41:49;12.60;99.90
10306;DHT22;5198;52.382;9.020;2022-11-15T04:45:53;12.70;99.90
10306;DHT22;5198;52.382;9.020;2022-11-15T04:49:56;12.70;99.90
10306;DHT22;5198;52.382;9.020;2022-11-15T04:53:59;12.70;99.90
10306;DHT22;5198;52.382;9.020;2022-11-15T04:58:02;12.70;99.90
10306;DHT22;5198;52.382;9.020;2022-11-15T05:02:06;12.70;99.90
10306;DHT22;5198;52.382;9.020;2022-11-15T05:06:09;12.70;99.90
10306;DHT22;5198;52.382;9.020;2022-11-15T05:10:12;12.70;99.90
10306;DHT22;5198;52.382;9.020;2022-11-15T05:14:15;12.70;99.90
10306;DHT22;5198;52.382;9.020;2022-11-15T05:18:19;12.70;99.90
10306;DHT22;5198;52.382;9.020;2022-11-15T05:22:24;12.70;99.90
10306;DHT22;5198;52.382;9.020;2022-11-15T05:26:27;12.60;99.90
10306;DHT22;5198;52.382;9.020;2022-11-15T05:30:30;12.60;99.90
10306;DHT22;5198;52.382;9.020;2022-11-15T05:34:34;12.60;99.90
10306;DHT22;5198;52.382;9.020;2022-11-15T05:38:37;12.60;99.90
10306;DHT22;5198;52.382;9.020;2022-11-15T05:42:40;12.50;99.90
10306;DHT22;5198;52.382;9.020;2022-11-15T05:46:43;12.50;99.90
10306;DHT22;5198;52.382;9.020;2022-11-15T05:50:48;12.50;99.90
10306;DHT22;5198;52.382;9.020;2022-11-15T05:54:51;12.50;99.90
10306;DHT22;5198;52.382;9.020;2022-11-15T05:58:54;12.50;99.90
10306;DHT22;5198;52.382;9.020;2022-11-15T06:03:00;12.50;99.90
10306;DHT22;5198;52.382;9.020;2022-11-15T06:07:05;12.50;99.90
10306;DHT22;5198;52.382;9.020;2022-11-15T06:11:08;12.50;99.90
10306;DHT22;5198;52.382;9.020;2022-11-15T06:15:10;12.50;99.90
10306;DHT22;5198;52.382;9.020;2022-11-15T06:19:13;12.50;99.90
10306;DHT22;5198;52.382;9.020;2022-11-15T06:23:18;12.50;99.90
10306;DHT22;5198;52.382;9.020;2022-11-15T06:27:20;12.50;99.90
10306;DHT22;5198;52.382;9.020;2022-11-15T06:31:23;12.50;99.90
10306;DHT22;5198;52.382;9.020;2022-11-15T06:35:26;12.50;99.90
10306;DHT22;5198;52.382;9.020;2022-11-15T06:39:32;12.50;99.90
10306;DHT22;5198;52.382;9.020;2022-11-15T06:43:35;12.60;99.90
10306;DHT22;5198;52.382;9.020;2022-11-15T06:47:43;12.60;99.90
10306;DHT22;5198;52.382;9.020;2022-11-15T06:51:46;12.60;99.90
10306;DHT22;5198;52.382;9.020;2022-11-15T06:55:51;12.60;99.90
10306;DHT22;5198;52.382;9.020;2022-11-15T06:59:56;12.60;99.90
10306;DHT22;5198;52.382;9.020;2022-11-15T07:03:59;12.70;99.90
10306;DHT22;5198;52.382;9.020;2022-11-15T07:08:02;12.70;99.90
10306;DHT22;5198;52.382;9.020;2022-11-15T07:12:06;12.70;99.90
10306;DHT22;5198;52.382;9.020;2022-11-15T07:16:09;12.70;99.90
10306;DHT22;5198;52.382;9.020;2022-11-15T07:20:13;12.70;99.90
10306;DHT22;5198;52.382;9.020;2022-11-15T07:24:16;12.70;99.90
10306;DHT22;5198;52.382;9.020;2022-11-15T07:28:20;12.70;99.90
10306;DHT22;5198;52.382;9.020;2022-11-15T07:32:23;12.70;99.90
10306;DHT22;5198;52.382;9.020;2022-11-15T07:36:26;12.70;99.90
10306;DHT22;5198;52.382;9.020;2022-11-15T07:40:29;12.70;99.90
10306;DHT22;5198;52.382;9.020;2022-11-15T07:44:34;12.70;99.90
10306;DHT22;5198;52.382;9.020;2022-11-15T07:48:37;12.70;99.90
10306;DHT22;5198;52.382;9.020;2022-11-15T07:52:45;12.80;99.90
10306;DHT22;5198;52.382;9.020;2022-11-15T07:56:48;12.80;99.90
10306;DHT22;5198;52.382;9.020;2022-11-15T08:00:52;12.90;99.90
10306;DHT22;5198;52.382;9.020;2022-11-15T08:04:55;13.00;99.90
10306;DHT22;5198;52.382;9.020;2022-11-15T08:08:58;13.00;99.90
10306;DHT22;5198;52.382;9.020;2022-11-15T08:13:02;13.10;99.90
10306;DHT22;5198;52.382;9.020;2022-11-15T08:17:06;13.20;99.90
10306;DHT22;5198;52.382;9.020;2022-11-15T08:21:09;13.30;99.90
10306;DHT22;5198;52.382;9.020;2022-11-15T08:25:18;13.40;99.90
10306;DHT22;5198;52.382;9.020;2022-11-15T08:29:21;13.40;99.90
10306;DHT22;5198;52.382;9.020;2022-11-15T08:33:26;13.50;99.90
10306;DHT22;5198;52.382;9.020;2022-11-15T08:37:29;13.60;99.90
10306;DHT22;5198;52.382;9.020;2022-11-15T08:41:33;13.60;99.90
10306;DHT22;5198;52.382;9.020;2022-11-15T08:45:37;13.70;99.90
10306;DHT22;5198;52.382;9.020;2022-11-15T08:49:41;13.80;99.90
10306;DHT22;5198;52.382;9.020;2022-11-15T08:53:44;14.20;99.90
10306;DHT22;5198;52.382;9.020;2022-11-15T08:57:47;14.40;99.90
10306;DHT22;5198;52.382;9.020;2022-11-15T09:01:50;14.60;99.90
10306;DHT22;5198;52.382;9.020;2022-11-15T09:05:55;15.00;99.90
10306;DHT22;5198;52.382;9.020;2022-11-15T09:09:58;15.10;99.90
10306;DHT22;5198;52.382;9.020;2022-11-15T09:14:01;15.30;99.90
10306;DHT22;5198;52.382;9.020;2022-11-15T09:18:04;15.40;99.90
10306;DHT22;5198;52.382;9.020;2022-11-15T09:22:08;15.60;99.90
10306;DHT22;5198;52.382;9.020;2022-11-15T09:26:11;15.80;99.90
10306;DHT22;5198;52.382;9.020;2022-11-15T09:46:30;16.90;99.90
10306;DHT22;5198;52.382;9.020;2022-11-15T09:50:36;16.90;99.90
10306;DHT22;5198;52.382;9.020;2022-11-15T09:54:41;17.70;99.90
10306;DHT22;5198;52.382;9.020;2022-11-15T09:58:57;17.90;99.90
10306;DHT22;5198;52.382;9.020;2022-11-15T10:03:13;18.90;99.90
10306;DHT22;5198;52.382;9.020;2022-11-15T10:07:18;20.10;99.90
10306;DHT22;5198;52.382;9.020;2022-11-15T10:11:22;20.30;99.90
10306;DHT22;5198;52.382;9.020;2022-11-15T10:15:41;21.40;99.90
10306;DHT22;5198;52.382;9.020;2022-11-15T10:19:50;21.40;99.90
10306;DHT22;5198;52.382;9.020;2022-11-15T10:23:55;21.90;99.90
10306;DHT22;5198;52.382;9.020;2022-11-15T10:27:59;22.20;99.90
10306;DHT22;5198;52.382;9.020;2022-11-15T10:32:03;22.50;99.90
10306;DHT22;5198;52.382;9.020;2022-11-15T10:36:18;22.80;99.90
10306;DHT22;5198;52.382;9.020;2022-11-15T10:40:22;22.90;99.90
10306;DHT22;5198;52.382;9.020;2022-11-15T10:44:26;22.90;99.90
10306;DHT22;5198;52.382;9.020;2022-11-15T10:48:29;22.80;99.90
10306;DHT22;5198;52.382;9.020;2022-11-15T10:52:34;22.90;99.90
10306;DHT22;5198;52.382;9.020;2022-11-15T10:56:37;23.10;99.90
10306;DHT22;5198;52.382;9.020;2022-11-15T11:00:41;23.40;99.90
10306;DHT22;5198;52.382;9.020;2022-11-15T11:04:48;24.10;99.90
10306;DHT22;5198;52.382;9.020;2022-11-15T11:08:56;24.30;99.90
10306;DHT22;5198;52.382;9.020;2022-11-15T11:13:12;24.60;99.90
10306;DHT22;5198;52.382;9.020;2022-11-15T11:17:16;24.70;99.90
10306;DHT22;5198;52.382;9.020;2022-11-15T11:21:37;24.80;99.90
10306;DHT22;5198;52.382;9.020;2022-11-15T11:25:45;24.80;99.90
10306;DHT22;5198;52.382;9.020;2022-11-15T11:30:02;24.80;99.90
10306;DHT22;5198;52.382;9.020;2022-11-15T11:34:09;25.00;99.90
10306;DHT22;5198;52.382;9.020;2022-11-15T11:38:19;25.20;99.90
10306;DHT22;5198;52.382;9.020;2022-11-15T11:42:26;25.40;99.90
10306;DHT22;5198;52.382;9.020;2022-11-15T11:46:36;25.70;99.90
10306;DHT22;5198;52.382;9.020;2022-11-15T11:50:40;26.00;99.90
10306;DHT22;5198;52.382;9.020;2022-11-15T11:54:47;26.20;99.90
10306;DHT22;5198;52.382;9.020;2022-11-15T11:58:53;26.20;99.90
10306;DHT22;5198;52.382;9.020;2022-11-15T12:03:02;26.20;99.60
10306;DHT22;5198;52.382;9.020;2022-11-15T12:07:08;26.20;99.90
10306;DHT22;5198;52.382;9.020;2022-11-15T12:11:12;26.20;99.90
10306;DHT22;5198;52.382;9.020;2022-11-15T12:15:18;26.20;97.00
10306;DHT22;5198;52.382;9.020;2022-11-15T12:19:22;26.30;97.90
10306;DHT22;5198;52.382;9.020;2022-11-15T12:23:25;26.20;98.20
10306;DHT22;5198;52.382;9.020;2022-11-15T12:27:32;26.50;99.90
10306;DHT22;5198;52.382;9.020;2022-11-15T12:31:38;26.70;98.50
10306;DHT22;5198;52.382;9.020;2022-11-15T12:35:42;26.80;99.30
10306;DHT22;5198;52.382;9.020;2022-11-15T12:40:16;26.60;97.60
10306;DHT22;5198;52.382;9.020;2022-11-15T12:57:33;23.50;98.40
10306;DHT22;5198;52.382;9.020;2022-11-15T13:06:01;22.20;99.90
10306;DHT22;5198;52.382;9.020;2022-11-15T13:10:27;21.60;99.90
10306;DHT22;5198;52.382;9.020;2022-11-15T13:14:48;21.20;99.90
10306;DHT22;5198;52.382;9.020;2022-11-15T13:18:53;20.80;99.90
10306;DHT22;5198;52.382;9.020;2022-11-15T13:23:00;20.50;99.90
10306;DHT22;5198;52.382;9.020;2022-11-15T13:27:09;20.20;99.90
10306;DHT22;5198;52.382;9.020;2022-11-15T13:31:25;20.00;99.90
10306;DHT22;5198;52.382;9.020;2022-11-15T13:35:28;19.70;99.90
10306;DHT22;5198;52.382;9.020;2022-11-15T13:39:34;19.40;99.90
10306;DHT22;5198;52.382;9.020;2022-11-15T13:43:39;19.20;99.90
10306;DHT22;5198;52.382;9.020;2022-11-15T13:47:43;19.00;99.90
10306;DHT22;5198;52.382;9.020;2022-11-15T13:51:46;18.80;99.90
10306;DHT22;5198;52.382;9.020;2022-11-15T13:55:50;18.60;99.90
10306;DHT22;5198;52.382;9.020;2022-11-15T13:59:54;18.40;99.90
10306;DHT22;5198;52.382;9.020;2022-11-15T14:03:59;18.20;99.90
10306;DHT22;5198;52.382;9.020;2022-11-15T14:08:05;18.00;99.90
10306;DHT22;5198;52.382;9.020;2022-11-15T14:16:39;17.80;99.90
10306;DHT22;5198;52.382;9.020;2022-11-15T14:20:44;17.70;99.90
10306;DHT22;5198;52.382;9.020;2022-11-15T14:24:47;17.50;99.90
10306;DHT22;5198;52.382;9.020;2022-11-15T14:28:50;17.40;99.90
10306;DHT22;5198;52.382;9.020;2022-11-15T14:32:53;17.30;99.90
10306;DHT22;5198;52.382;9.020;2022-11-15T14:36:57;17.20;99.90
10306;DHT22;5198;52.382;9.020;2022-11-15T14:41:00;17.10;99.90
10306;DHT22;5198;52.382;9.020;2022-11-15T14:45:04;17.00;99.90
10306;DHT22;5198;52.382;9.020;2022-11-15T14:49:11;17.00;99.90
10306;DHT22;5198;52.382;9.020;2022-11-15T14:53:16;16.90;99.90
10306;DHT22;5198;52.382;9.020;2022-11-15T14:57:20;16.80;99.90
10306;DHT22;5198;52.382;9.020;2022-11-15T15:01:25;16.70;99.90
10306;DHT22;5198;52.382;9.020;2022-11-15T15:05:29;16.60;99.90
10306;DHT22;5198;52.382;9.020;2022-11-15T15:09:34;16.50;99.90
10306;DHT22;5198;52.382;9.020;2022-11-15T15:13:37;16.40;99.90
10306;DHT22;5198;52.382;9.020;2022-11-15T15:17:40;16.30;99.90
10306;DHT22;5198;52.382;9.020;2022-11-15T15:21:43;16.20;99.90
10306;DHT22;5198;52.382;9.020;2022-11-15T15:25:47;16.10;99.90
10306;DHT22;5198;52.382;9.020;2022-11-15T15:29:50;15.90;99.90
10306;DHT22;5198;52.382;9.020;2022-11-15T15:33:53;15.80;99.90
10306;DHT22;5198;52.382;9.020;2022-11-15T15:37:56;15.70;99.90
10306;DHT22;5198;52.382;9.020;2022-11-15T15:42:01;15.60;99.90
10306;DHT22;5198;52.382;9.020;2022-11-15T15:46:07;15.40;99.90
10306;DHT22;5198;52.382;9.020;2022-11-15T15:50:14;15.30;99.90
10306;DHT22;5198;52.382;9.020;2022-11-15T15:54:19;15.30;99.90
10306;DHT22;5198;52.382;9.020;2022-11-15T15:58:23;15.20;99.90
10306;DHT22;5198;52.382;9.020;2022-11-15T16:02:26;15.10;99.90
10306;DHT22;5198;52.382;9.020;2022-11-15T16:06:33;15.10;99.90
10306;DHT22;5198;52.382;9.020;2022-11-15T16:10:36;15.00;99.90
10306;DHT22;5198;52.382;9.020;2022-11-15T16:14:41;15.00;99.90
10306;DHT22;5198;52.382;9.020;2022-11-15T16:18:44;14.90;99.90
10306;DHT22;5198;52.382;9.020;2022-11-15T16:22:47;14.90;99.90
10306;DHT22;5198;52.382;9.020;2022-11-15T16:26:50;14.90;99.90
10306;DHT22;5198;52.382;9.020;2022-11-15T16:31:01;14.80;99.90
10306;DHT22;5198;52.382;9.020;2022-11-15T16:35:04;14.80;99.90
10306;DHT22;5198;52.382;9.020;2022-11-15T16:39:08;14.70;99.90
10306;DHT22;5198;52.382;9.020;2022-11-15T16:43:14;14.60;99.90
10306;DHT22;5198;52.382;9.020;2022-11-15T16:47:19;14.60;99.90
10306;DHT22;5198;52.382;9.020;2022-11-15T16:51:22;14.50;99.90
10306;DHT22;5198;52.382;9.020;2022-11-15T16:55:27;14.50;99.90
10306;DHT22;5198;52.382;9.020;2022-11-15T16:59:30;14.40;99.90
10306;DHT22;5198;52.382;9.020;2022-11-15T17:03:42;14.40;99.90
10306;DHT22;5198;52.382;9.020;2022-11-15T17:07:45;14.30;99.90
10306;DHT22;5198;52.382;9.020;2022-11-15T17:11:49;14.30;99.90
10306;DHT22;5198;52.382;9.020;2022-11-15T17:16:01;14.20;99.90
10306;DHT22;5198;52.382;9.020;2022-11-15T17:20:08;14.10;99.90
10306;DHT22;5198;52.382;9.020;2022-11-15T17:24:18;14.10;99.90
10306;DHT22;5198;52.382;9.020;2022-11-15T17:28:21;14.00;99.90
10306;DHT22;5198;52.382;9.020;2022-11-15T17:32:24;14.00;99.90
10306;DHT22;5198;52.382;9.020;2022-11-15T17:36:31;13.90;99.90
10306;DHT22;5198;52.382;9.020;2022-11-15T17:40:34;13.90;99.90
10306;DHT22;5198;52.382;9.020;2022-11-15T17:44:37;13.80;99.90
10306;DHT22;5198;52.382;9.020;2022-11-15T17:48:40;13.80;99.90
10306;DHT22;5198;52.382;9.020;2022-11-15T17:52:45;13.80;99.90
10306;DHT22;5198;52.382;9.020;2022-11-15T17:56:48;13.80;99.90
10306;DHT22;5198;52.382;9.020;2022-11-15T18:00:51;13.80;99.90
10306;DHT22;5198;52.382;9.020;2022-11-15T18:04:54;13.70;99.90
10306;DHT22;5198;52.382;9.020;2022-11-15T18:08:58;13.70;99.90
10306;DHT22;5198;52.382;9.020;2022-11-15T18:13:01;13.70;99.90
10306;DHT22;5198;52.382;9.020;2022-11-15T18:17:04;13.70;99.90
10306;DHT22;5198;52.382;9.020;2022-11-15T18:21:08;13.70;99.90
10306;DHT22;5198;52.382;9.020;2022-11-15T18:25:13;13.60;99.90
10306;DHT22;5198;52.382;9.020;2022-11-15T18:29:16;13.70;99.90
10306;DHT22;5198;52.382;9.020;2022-11-15T18:33:20;13.60;99.90
10306;DHT22;5198;52.382;9.020;2022-11-15T18:37:23;13.60;99.90
10306;DHT22;5198;52.382;9.020;2022-11-15T18:41:29;13.60;99.90
10306;DHT22;5198;52.382;9.020;2022-11-15T18:45:32;13.60;99.90
10306;DHT22;5198;52.382;9.020;2022-11-15T18:49:35;13.60;99.90
10306;DHT22;5198;52.382;9.020;2022-11-15T18:53:39;13.60;99.90
10306;DHT22;5198;52.382;9.020;2022-11-15T18:57:43;13.60;99.90
10306;DHT22;5198;52.382;9.020;2022-11-15T19:01:46;13.60;99.90
10306;DHT22;5198;52.382;9.020;2022-11-15T19:05:50;13.60;99.90
10306;DHT22;5198;52.382;9.020;2022-11-15T19:09:53;13.60;99.90
10306;DHT22;5198;52.382;9.020;2022-11-15T19:13:58;13.60;99.90
10306;DHT22;5198;52.382;9.020;2022-11-15T19:18:03;13.60;99.90
10306;DHT22;5198;52.382;9.020;2022-11-15T19:22:06;13.60;99.90
10306;DHT22;5198;52.382;9.020;2022-11-15T19:26:11;13.60;99.90
10306;DHT22;5198;52.382;9.020;2022-11-15T19:30:17;13.60;99.90
10306;DHT22;5198;52.382;9.020;2022-11-15T19:34:20;13.60;99.90
10306;DHT22;5198;52.382;9.020;2022-11-15T19:38:23;13.60;99.90
10306;DHT22;5198;52.382;9.020;2022-11-15T19:42:26;13.60;99.90
10306;DHT22;5198;52.382;9.020;2022-11-15T19:46:30;13.60;99.90
10306;DHT22;5198;52.382;9.020;2022-11-15T19:50:34;13.60;99.90
10306;DHT22;5198;52.382;9.020;2022-11-15T19:54:38;13.60;99.90
10306;DHT22;5198;52.382;9.020;2022-11-15T19:58:41;13.60;99.90
10306;DHT22;5198;52.382;9.020;2022-11-15T20:02:45;13.60;99.90
10306;DHT22;5198;52.382;9.020;2022-11-15T20:06:48;13.60;99.90
10306;DHT22;5198;52.382;9.020;2022-11-15T20:10:51;13.60;99.90
10306;DHT22;5198;52.382;9.020;2022-11-15T20:14:54;13.60;99.90
10306;DHT22;5198;52.382;9.020;2022-11-15T20:18:59;13.60;99.90
10306;DHT22;5198;52.382;9.020;2022-11-15T20:23:02;13.60;99.90
10306;DHT22;5198;52.382;9.020;2022-11-15T20:27:05;13.60;99.90
10306;DHT22;5198;52.382;9.020;2022-11-15T20:31:09;13.60;99.90
10306;DHT22;5198;52.382;9.020;2022-11-15T20:35:13;13.70;99.90
10306;DHT22;5198;52.382;9.020;2022-11-15T20:39:16;13.70;99.90
10306;DHT22;5198;52.382;9.020;2022-11-15T20:43:20;13.80;99.90
10306;DHT22;5198;52.382;9.020;2022-11-15T20:47:23;13.80;99.90
10306;DHT22;5198;52.382;9.020;2022-11-15T20:51:32;13.90;99.90
10306;DHT22;5198;52.382;9.020;2022-11-15T20:55:37;13.90;99.90
10306;DHT22;5198;52.382;9.020;2022-11-15T20:59:40;13.90;99.90
10306;DHT22;5198;52.382;9.020;2022-11-15T21:03:43;13.90;99.90
10306;DHT22;5198;52.382;9.020;2022-11-15T21:07:48;13.90;99.90
10306;DHT22;5198;52.382;9.020;2022-11-15T21:11:51;14.00;99.90
10306;DHT22;5198;52.382;9.020;2022-11-15T21:16:11;14.00;99.90
10306;DHT22;5198;52.382;9.020;2022-11-15T21:20:14;14.00;99.90
10306;DHT22;5198;52.382;9.020;2022-11-15T21:24:19;14.00;99.90
10306;DHT22;5198;52.382;9.020;2022-11-15T21:28:22;14.00;99.90
10306;DHT22;5198;52.382;9.020;2022-11-15T21:32:25;14.00;99.90
10306;DHT22;5198;52.382;9.020;2022-11-15T21:36:29;14.00;99.90
10306;DHT22;5198;52.382;9.020;2022-11-15T21:40:33;14.00;99.90
10306;DHT22;5198;52.382;9.020;2022-11-15T21:44:36;13.90;99.90
10306;DHT22;5198;52.382;9.020;2022-11-15T21:48:39;14.00;99.90
10306;DHT22;5198;52.382;9.020;2022-11-15T21:52:43;14.00;99.90
10306;DHT22;5198;52.382;9.020;2022-11-15T21:56:49;14.00;99.90
10306;DHT22;5198;52.382;9.020;2022-11-15T22:00:52;14.00;99.90
10306;DHT22;5198;52.382;9.020;2022-11-15T22:05:13;14.00;99.90
10306;DHT22;5198;52.382;9.020;2022-11-15T22:09:16;14.00;99.90
10306;DHT22;5198;52.382;9.020;2022-11-15T22:13:20;14.00;99.90
10306;DHT22;5198;52.382;9.020;2022-11-15T22:17:23;13.90;99.90
10306;DHT22;5198;52.382;9.020;2022-11-15T22:21:46;13.90;99.90
10306;DHT22;5198;52.382;9.020;2022-11-15T22:25:49;13.90;99.90
10306;DHT22;5198;52.382;9.020;2022-11-15T22:29:53;13.90;99.90
10306;DHT22;5198;52.382;9.020;2022-11-15T22:33:56;13.90;99.90
10306;DHT22;5198;52.382;9.020;2022-11-15T22:37:59;13.90;99.90
10306;DHT22;5198;52.382;9.020;2022-11-15T22:42:02;13.90;99.90
10306;DHT22;5198;52.382;9.020;2022-11-15T22:46:07;13.80;99.90
10306;DHT22;5198;52.382;9.020;2022-11-15T22:50:10;13.80;99.90
10306;DHT22;5198;52.382;9.020;2022-11-15T22:54:13;13.80;99.90
10306;DHT22;5198;52.382;9.020;2022-11-15T22:58:16;13.80;99.90
10306;DHT22;5198;52.382;9.020;2022-11-15T23:02:21;13.80;99.90
10306;DHT22;5198;52.382;9.020;2022-11-15T23:06:24;13.80;99.90
10306;DHT22;5198;52.382;9.020;2022-11-15T23:10:27;13.80;99.90
10306;DHT22;5198;52.382;9.020;2022-11-15T23:14:47;13.70;99.90
10306;DHT22;5198;52.382;9.020;2022-11-15T23:18:53;13.70;99.90
10306;DHT22;5198;52.382;9.020;2022-11-15T23:22:56;13.70;99.90
10306;DHT22;5198;52.382;9.020;2022-11-15T23:27:01;13.70;99.90
10306;DHT22;5198;52.382;9.020;2022-11-15T23:31:05;13.70;99.90
10306;DHT22;5198;52.382;9.020;2022-11-15T23:35:27;13.70;99.90
10306;DHT22;5198;52.382;9.020;2022-11-15T23:39:30;13.70;99.90
10306;DHT22;5198;52.382;9.020;2022-11-15T23:43:33;13.60;99.90
10306;DHT22;5198;52.382;9.020;2022-11-15T23:47:36;13.60;99.90
10306;DHT22;5198;52.382;9.020;2022-11-15T23:51:40;13.60;99.90
10306;DHT22;5198;52.382;9.020;2022-11-15T23:55:43;13.60;99.90
10306;DHT22;5198;52.382;9.020;2022-11-15T23:59:55;13.60;99.90
